Time;durP1;ratioP1;P1;durP2;ratioP2;P2;SDS_P1;SDS_P2;PMS_P1;PMS_P2;Temp;Humidity;BMP_temperature;BMP_pressure;BME280_temperature;BME280_humidity;BME280_pressure;Samples;Min_cycle;Max_cycle;Signal;HPM_P1;HPM_P2
2023/03/30 00:01:33;;;;;;;20.20;7.47;;;9.10;99.90;;;;;;5169416;28;20444;-49
2023/03/30 00:04:05;;;;;;;9.27;7.20;;;9.10;99.90;;;;;;5171488;28;20431;-48
2023/03/30 00:06:38;;;;;;;10.07;7.10;;;9.10;99.90;;;;;;5170267;28;20310;-50
2023/03/30 00:09:08;;;;;;;8.53;6.70;;;9.10;99.90;;;;;;5167816;28;20496;-49
2023/03/30 00:11:39;;;;;;;8.47;6.73;;;9.10;99.90;;;;;;5166856;28;20480;-49
2023/03/30 00:14:11;;;;;;;9.60;6.77;;;9.00;99.90;;;;;;5164288;28;20869;-48
2023/03/30 00:16:41;;;;;;;7.60;6.57;;;9.00;99.90;;;;;;5166797;28;20193;-48
2023/03/30 00:19:12;;;;;;;9.20;6.83;;;9.00;99.90;;;;;;5185308;28;20439;-49
2023/03/30 00:21:44;;;;;;;10.50;7.30;;;9.00;99.90;;;;;;5182360;28;20188;-49
2023/03/30 00:24:14;;;;;;;13.80;7.37;;;9.00;99.90;;;;;;5156585;28;20189;-50
2023/03/30 00:26:45;;;;;;;10.43;7.37;;;8.90;99.90;;;;;;5169192;28;20464;-49
2023/03/30 00:29:16;;;;;;;8.70;7.13;;;8.90;99.90;;;;;;5166921;28;20251;-49
2023/03/30 00:31:46;;;;;;;7.83;6.83;;;9.00;99.90;;;;;;5165909;28;20182;-50
2023/03/30 00:34:17;;;;;;;8.07;7.10;;;8.90;99.90;;;;;;5169235;28;20172;-48
2023/03/30 00:36:48;;;;;;;8.47;6.87;;;8.90;99.90;;;;;;5156831;28;20740;-49
2023/03/30 00:39:21;;;;;;;7.30;6.20;;;8.90;99.90;;;;;;5165303;28;20565;-49
2023/03/30 00:41:52;;;;;;;9.83;7.17;;;8.80;99.90;;;;;;5165070;28;20547;-49
2023/03/30 00:45:01;;;;;;;7.07;6.43;;;8.80;99.90;;;;;;5153188;28;20452;-51
2023/03/30 00:47:34;;;;;;;12.57;7.50;;;8.80;99.90;;;;;;5166142;28;20213;-49
2023/03/30 00:50:06;;;;;;;8.10;6.83;;;8.80;99.90;;;;;;5169899;28;20554;-48
2023/03/30 00:52:39;;;;;;;10.47;6.53;;;8.80;99.90;;;;;;5161330;28;20519;-49
2023/03/30 00:55:11;;;;;;;10.67;7.33;;;8.90;99.90;;;;;;5168142;28;20773;-48
2023/03/30 00:57:43;;;;;;;7.20;6.40;;;9.00;99.90;;;;;;5143778;28;20444;-47
2023/03/30 01:00:14;;;;;;;9.87;6.90;;;8.90;99.90;;;;;;5157975;28;20436;-50
2023/03/30 01:02:54;;;;;;;13.30;7.30;;;8.70;99.90;;;;;;5168144;28;21005;-49
2023/03/30 01:05:27;;;;;;;8.30;7.03;;;8.60;99.90;;;;;;5160817;28;20265;-49
2023/03/30 01:07:58;;;;;;;8.87;6.93;;;8.60;99.90;;;;;;5169030;28;20463;-50
2023/03/30 01:10:28;;;;;;;9.60;6.80;;;8.60;99.90;;;;;;5171572;28;20791;-50
2023/03/30 01:12:59;;;;;;;8.67;6.73;;;8.60;99.90;;;;;;5158663;28;20189;-50
2023/03/30 01:15:34;;;;;;;7.37;6.40;;;8.60;99.90;;;;;;5164473;28;20535;-51
2023/03/30 01:18:23;;;;;;;10.90;7.10;;;8.60;99.90;;;;;;5168645;28;20453;-50
2023/03/30 01:21:14;;;;;;;10.40;6.67;;;8.60;99.90;;;;;;5174786;28;20432;-49
2023/03/30 01:23:57;;;;;;;8.07;5.87;;;8.60;99.90;;;;;;5169294;28;20439;-49
2023/03/30 01:26:28;;;;;;;7.27;6.57;;;8.60;99.90;;;;;;5162870;28;20483;-51
2023/03/30 01:29:28;;;;;;;11.07;7.23;;;8.50;99.90;;;;;;5161031;28;20507;-49
2023/03/30 01:32:06;;;;;;;10.30;6.37;;;8.50;99.90;;;;;;5168171;28;20191;-50
2023/03/30 01:35:09;;;;;;;6.43;5.73;;;8.50;99.90;;;;;;5162308;28;20441;-50
2023/03/30 01:37:54;;;;;;;8.53;7.50;;;8.40;99.90;;;;;;5162288;28;20444;-50
2023/03/30 01:40:36;;;;;;;11.07;6.97;;;8.50;99.90;;;;;;5164274;28;20544;-48
2023/03/30 01:43:27;;;;;;;11.50;7.03;;;8.50;99.90;;;;;;5173395;28;20415;-50
2023/03/30 01:46:10;;;;;;;8.73;6.90;;;8.50;99.90;;;;;;5168997;28;20843;-51
2023/03/30 01:48:47;;;;;;;11.43;8.00;;;8.50;99.90;;;;;;5165758;28;20511;-49
2023/03/30 01:51:26;;;;;;;7.93;6.73;;;8.50;99.90;;;;;;5157837;28;20816;-48
2023/03/30 01:54:06;;;;;;;16.47;7.30;;;8.50;99.90;;;;;;5163236;28;20783;-49
2023/03/30 01:56:55;;;;;;;9.07;7.23;;;8.60;99.90;;;;;;5158999;28;20477;-49
2023/03/30 01:59:41;;;;;;;8.27;7.00;;;8.60;99.90;;;;;;5163849;28;20444;-50
2023/03/30 02:02:14;;;;;;;8.70;6.80;;;8.60;99.90;;;;;;5164231;28;20435;-51
2023/03/30 02:04:46;;;;;;;7.33;6.60;;;8.50;99.90;;;;;;5169467;28;20436;-49
2023/03/30 02:07:25;;;;;;;8.37;7.40;;;8.50;99.90;;;;;;5164226;28;20530;-49
2023/03/30 02:10:01;;;;;;;9.17;7.40;;;8.50;99.90;;;;;;5165254;28;20447;-49
2023/03/30 02:12:32;;;;;;;7.53;6.73;;;8.50;99.90;;;;;;5157395;28;20502;-49
2023/03/30 02:15:08;;;;;;;15.53;7.47;;;8.60;99.90;;;;;;5139707;28;20437;-49
2023/03/30 02:17:40;;;;;;;7.90;6.70;;;8.50;99.90;;;;;;5151190;28;20483;-49
2023/03/30 02:20:11;;;;;;;8.00;7.00;;;8.50;99.90;;;;;;5163756;28;20429;-48
2023/03/30 02:22:43;;;;;;;15.13;7.70;;;8.60;99.90;;;;;;5165913;28;20792;-49
2023/03/30 02:25:15;;;;;;;9.10;6.97;;;8.60;99.90;;;;;;5172249;28;20515;-49
2023/03/30 02:27:46;;;;;;;10.27;7.57;;;8.50;99.90;;;;;;5166762;28;20498;-49
2023/03/30 02:30:16;;;;;;;7.43;6.70;;;8.60;99.90;;;;;;5147722;28;20533;-49
2023/03/30 02:32:55;;;;;;;11.50;6.93;;;8.50;99.90;;;;;;5177307;28;20947;-50
2023/03/30 02:35:47;;;;;;;9.17;6.90;;;8.60;99.90;;;;;;5166956;28;20192;-48
2023/03/30 02:38:54;;;;;;;8.37;6.93;;;8.60;99.90;;;;;;5165755;28;20954;-50
2023/03/30 02:42:12;;;;;;;12.60;6.77;;;8.70;99.90;;;;;;5162555;28;20428;-49
2023/03/30 02:45:04;;;;;;;7.33;6.63;;;8.60;99.90;;;;;;5165080;28;20800;-50
2023/03/30 02:47:58;;;;;;;7.30;6.40;;;8.60;99.90;;;;;;5148831;28;20472;-49
2023/03/30 02:50:56;;;;;;;10.07;6.93;;;8.70;99.90;;;;;;5166279;28;20518;-49
2023/03/30 02:53:46;;;;;;;7.03;6.33;;;8.70;99.90;;;;;;5163350;28;20558;-49
2023/03/30 02:56:25;;;;;;;7.10;6.10;;;8.60;99.90;;;;;;5159710;28;20515;-49
2023/03/30 02:59:04;;;;;;;10.47;7.67;;;8.60;99.90;;;;;;5159592;28;20444;-48
2023/03/30 03:01:57;;;;;;;7.30;6.60;;;8.60;99.90;;;;;;5163277;28;20534;-50
2023/03/30 03:04:28;;;;;;;9.53;6.83;;;8.60;99.90;;;;;;5160876;28;20423;-50
2023/03/30 03:07:01;;;;;;;10.13;6.67;;;8.60;99.90;;;;;;5156242;28;20468;-49
2023/03/30 03:09:32;;;;;;;10.57;7.70;;;8.60;99.90;;;;;;5170684;28;20453;-49
2023/03/30 03:12:03;;;;;;;8.53;6.93;;;8.60;99.90;;;;;;5184488;28;20427;-49
2023/03/30 03:14:34;;;;;;;9.47;6.63;;;8.50;99.90;;;;;;5155028;28;20212;-49
2023/03/30 03:17:05;;;;;;;14.43;7.27;;;8.60;99.90;;;;;;5152566;28;20937;-49
2023/03/30 03:19:36;;;;;;;9.87;6.70;;;8.60;99.90;;;;;;5160953;28;20476;-49
2023/03/30 03:22:06;;;;;;;6.93;6.23;;;8.60;99.90;;;;;;5154795;28;20184;-49
2023/03/30 03:24:38;;;;;;;6.47;5.33;;;8.60;99.90;;;;;;5160345;28;20189;-49
2023/03/30 03:27:08;;;;;;;10.00;6.97;;;8.60;99.90;;;;;;5156156;28;20684;-50
2023/03/30 03:29:39;;;;;;;19.53;8.10;;;8.60;99.90;;;;;;5161046;28;20452;-51
2023/03/30 03:32:09;;;;;;;10.37;6.70;;;8.50;99.90;;;;;;5163613;28;20243;-49
2023/03/30 03:34:43;;;;;;;11.77;7.43;;;8.60;99.90;;;;;;5157707;28;20182;-49
2023/03/30 03:37:14;;;;;;;7.80;6.60;;;8.60;99.90;;;;;;5157509;28;20238;-49
2023/03/30 03:39:44;;;;;;;9.43;7.03;;;8.60;99.90;;;;;;5176914;28;20468;-49
2023/03/30 03:42:15;;;;;;;7.70;6.80;;;8.70;99.90;;;;;;5163085;28;20232;-49
2023/03/30 03:44:46;;;;;;;10.00;7.00;;;8.60;99.90;;;;;;5151272;28;20185;-51
2023/03/30 03:47:17;;;;;;;7.17;6.23;;;8.70;99.90;;;;;;5155778;28;20209;-52
2023/03/30 03:49:47;;;;;;;7.73;6.83;;;8.70;99.90;;;;;;5160131;28;20178;-49
2023/03/30 03:52:18;;;;;;;9.13;7.47;;;8.70;99.90;;;;;;5159910;28;20447;-50
2023/03/30 03:54:49;;;;;;;13.73;7.40;;;8.70;99.90;;;;;;5155327;28;20242;-48
2023/03/30 03:57:22;;;;;;;8.73;7.20;;;8.70;99.90;;;;;;5164070;28;20208;-50
2023/03/30 03:59:55;;;;;;;13.87;7.40;;;8.70;99.90;;;;;;5155508;28;20269;-49
2023/03/30 04:02:26;;;;;;;12.33;8.10;;;8.70;99.90;;;;;;5161684;28;20443;-49
2023/03/30 04:04:57;;;;;;;11.70;7.60;;;8.70;99.90;;;;;;5163245;28;20444;-48
2023/03/30 04:07:28;;;;;;;11.83;8.67;;;8.70;99.90;;;;;;5164119;28;21010;-49
2023/03/30 04:09:59;;;;;;;10.47;7.73;;;8.60;99.90;;;;;;5161257;28;20193;-49
2023/03/30 04:12:29;;;;;;;12.73;7.83;;;8.60;99.90;;;;;;5165040;28;20432;-50
2023/03/30 04:15:00;;;;;;;9.47;8.43;;;8.60;99.90;;;;;;5156779;28;20182;-50
2023/03/30 04:17:36;;;;;;;15.33;8.20;;;8.60;99.90;;;;;;5156750;28;20212;-51
2023/03/30 04:20:10;;;;;;;10.80;7.93;;;8.70;99.90;;;;;;5163972;28;20189;-51
2023/03/30 04:22:41;;;;;;;9.33;7.60;;;8.60;99.90;;;;;;5167679;28;20418;-49
2023/03/30 04:25:14;;;;;;;11.93;8.37;;;8.50;99.90;;;;;;5158965;28;20483;-52
2023/03/30 04:27:49;;;;;;;14.90;7.80;;;8.50;99.90;;;;;;5181654;28;21014;-50
2023/03/30 04:30:21;;;;;;;13.53;8.40;;;8.60;99.90;;;;;;5164589;28;20798;-49
2023/03/30 04:33:01;;;;;;;9.70;8.20;;;8.50;99.90;;;;;;5168026;28;20441;-49
2023/03/30 04:35:33;;;;;;;11.57;8.23;;;8.60;99.90;;;;;;5161355;28;20512;-50
2023/03/30 04:38:03;;;;;;;10.70;7.83;;;8.60;99.90;;;;;;5167184;28;20460;-50
2023/03/30 04:40:34;;;;;;;10.03;8.10;;;8.50;99.90;;;;;;5166482;28;20490;-50
2023/03/30 04:43:04;;;;;;;9.60;8.43;;;8.60;99.90;;;;;;5160983;28;20267;-49
2023/03/30 04:45:36;;;;;;;11.77;8.47;;;8.60;99.90;;;;;;5171969;28;20181;-52
2023/03/30 04:48:07;;;;;;;12.23;7.60;;;8.60;99.90;;;;;;5171332;28;20197;-50
2023/03/30 04:50:38;;;;;;;14.97;8.10;;;8.60;99.90;;;;;;5162327;28;20818;-48
2023/03/30 04:53:09;;;;;;;8.70;7.20;;;8.70;99.90;;;;;;5161817;28;20196;-50
2023/03/30 04:55:41;;;;;;;10.13;7.30;;;8.60;99.90;;;;;;5172265;28;20280;-50
2023/03/30 04:58:12;;;;;;;13.20;8.27;;;8.60;99.90;;;;;;5165820;28;20582;-49
2023/03/30 05:00:42;;;;;;;14.57;8.50;;;8.60;99.90;;;;;;5168160;28;20436;-50
2023/03/30 05:03:13;;;;;;;11.47;7.73;;;8.60;99.90;;;;;;5160746;28;20187;-49
2023/03/30 05:05:44;;;;;;;8.27;7.40;;;8.60;99.90;;;;;;5147590;28;20646;-49
2023/03/30 05:08:14;;;;;;;12.03;8.00;;;8.60;99.90;;;;;;5145906;28;20252;-50
2023/03/30 05:10:45;;;;;;;16.23;8.20;;;8.60;99.90;;;;;;5159104;28;20177;-50
2023/03/30 05:13:16;;;;;;;13.17;8.30;;;8.60;99.90;;;;;;5167164;28;20271;-50
2023/03/30 05:15:53;;;;;;;12.83;7.97;;;8.70;99.90;;;;;;5155423;28;20444;-50
2023/03/30 05:18:24;;;;;;;9.27;7.90;;;8.70;99.90;;;;;;5163237;28;20197;-49
2023/03/30 05:20:58;;;;;;;12.30;8.13;;;8.80;99.90;;;;;;5158057;28;20494;-49
2023/03/30 05:23:29;;;;;;;9.23;7.33;;;8.90;99.90;;;;;;5183762;28;20435;-49
2023/03/30 05:25:59;;;;;;;10.43;6.50;;;8.90;99.90;;;;;;5171495;28;20549;-49
2023/03/30 05:28:30;;;;;;;12.10;7.00;;;8.90;99.90;;;;;;5151975;28;20213;-50
2023/03/30 05:31:01;;;;;;;12.80;8.23;;;8.90;99.90;;;;;;5178112;28;20252;-50
2023/03/30 05:33:31;;;;;;;11.40;7.20;;;9.00;99.90;;;;;;5164987;28;20447;-50
2023/03/30 05:36:03;;;;;;;17.77;6.80;;;9.00;99.90;;;;;;5162137;28;20181;-52
2023/03/30 05:38:34;;;;;;;8.30;6.40;;;9.10;99.90;;;;;;5167374;28;20235;-50
2023/03/30 05:41:05;;;;;;;6.77;6.13;;;9.20;99.90;;;;;;5163118;28;20447;-49
2023/03/30 05:43:36;;;;;;;10.90;6.50;;;9.30;99.90;;;;;;5163369;28;20436;-51
2023/03/30 05:46:07;;;;;;;9.80;5.90;;;9.40;99.90;;;;;;5157373;28;20275;-49
2023/03/30 05:48:37;;;;;;;9.37;5.00;;;9.30;99.90;;;;;;5155393;28;20209;-51
2023/03/30 05:51:08;;;;;;;8.50;6.07;;;9.20;99.90;;;;;;5164708;28;20180;-50
2023/03/30 05:53:39;;;;;;;7.93;6.47;;;9.20;99.90;;;;;;5144233;28;20186;-49
2023/03/30 05:56:11;;;;;;;6.60;5.40;;;9.20;99.90;;;;;;5162846;28;20201;-49
2023/03/30 05:58:42;;;;;;;6.83;5.70;;;9.20;99.90;;;;;;5167950;28;20200;-52
2023/03/30 06:01:13;;;;;;;7.30;5.93;;;9.10;99.90;;;;;;5167448;28;20432;-50
2023/03/30 06:03:43;;;;;;;9.83;5.53;;;9.10;99.90;;;;;;5166019;28;20531;-49
2023/03/30 06:06:15;;;;;;;10.13;5.67;;;9.10;99.90;;;;;;5163779;28;24412;-50
2023/03/30 06:08:45;;;;;;;8.60;5.30;;;9.20;99.90;;;;;;5159683;28;20682;-52
2023/03/30 06:11:16;;;;;;;7.23;4.90;;;9.20;99.90;;;;;;5165809;28;20819;-50
2023/03/30 06:13:47;;;;;;;8.90;5.80;;;9.30;99.90;;;;;;5158583;28;20181;-51
2023/03/30 06:16:17;;;;;;;12.70;6.20;;;9.40;99.90;;;;;;5170521;28;20181;-50
2023/03/30 06:18:48;;;;;;;15.63;5.63;;;9.40;99.90;;;;;;5164810;28;20216;-51
2023/03/30 06:21:19;;;;;;;7.33;6.00;;;9.60;99.90;;;;;;5161175;28;20200;-51
2023/03/30 06:23:50;;;;;;;6.83;5.70;;;9.60;99.90;;;;;;5174224;28;20284;-50
2023/03/30 06:26:22;;;;;;;5.90;4.77;;;9.80;99.90;;;;;;5161853;28;20213;-51
2023/03/30 06:28:53;;;;;;;11.90;6.93;;;9.90;99.90;;;;;;5162277;28;20472;-51
2023/03/30 06:31:24;;;;;;;7.43;4.90;;;10.40;99.90;;;;;;5160505;28;20471;-51
2023/03/30 06:33:54;;;;;;;5.60;5.10;;;10.80;99.90;;;;;;5162149;28;20592;-51
2023/03/30 06:36:25;;;;;;;6.63;5.20;;;11.40;99.90;;;;;;5160575;28;20522;-49
2023/03/30 06:38:56;;;;;;;5.40;4.90;;;11.70;99.90;;;;;;5154622;28;20209;-52
2023/03/30 06:41:27;;;;;;;7.57;4.80;;;12.00;99.90;;;;;;5163771;28;20231;-49
2023/03/30 06:43:57;;;;;;;9.40;5.67;;;12.20;99.90;;;;;;5166943;28;20193;-51
2023/03/30 06:46:28;;;;;;;20.80;13.23;;;12.00;99.90;;;;;;5166025;28;20494;-49
2023/03/30 06:48:59;;;;;;;21.10;11.70;;;12.10;99.90;;;;;;5162077;28;20217;-52
2023/03/30 06:51:29;;;;;;;10.53;7.80;;;12.00;99.90;;;;;;5163257;28;20440;-50
2023/03/30 06:54:01;;;;;;;12.47;7.60;;;11.90;99.90;;;;;;5163550;28;20527;-50
2023/03/30 06:56:31;;;;;;;12.30;8.10;;;11.50;99.90;;;;;;5159269;28;20251;-49
2023/03/30 06:59:02;;;;;;;9.70;6.17;;;11.30;99.90;;;;;;5166019;28;20448;-50
2023/03/30 07:01:32;;;;;;;8.00;5.20;;;11.20;99.90;;;;;;5164240;28;20190;-50
2023/03/30 07:04:04;;;;;;;9.13;5.87;;;11.30;99.90;;;;;;5164779;28;20224;-49
2023/03/30 07:06:35;;;;;;;8.17;6.03;;;11.40;99.90;;;;;;5162271;28;20236;-49
2023/03/30 07:09:05;;;;;;;6.60;5.93;;;11.60;99.90;;;;;;5166043;28;20506;-49
2023/03/30 07:11:37;;;;;;;16.63;10.30;;;12.00;99.90;;;;;;5163878;28;20205;-49
2023/03/30 07:14:10;;;;;;;9.00;7.27;;;12.40;99.90;;;;;;5165519;28;20374;-51
2023/03/30 07:16:40;;;;;;;12.10;7.57;;;13.00;99.90;;;;;;5162615;28;20447;-52
2023/03/30 07:19:11;;;;;;;11.30;7.70;;;14.60;99.90;;;;;;5162840;28;20963;-49
2023/03/30 07:21:42;;;;;;;12.33;7.77;;;17.30;99.90;;;;;;5162880;28;20236;-50
2023/03/30 07:24:12;;;;;;;6.93;5.20;;;19.80;78.20;;;;;;5166638;28;20189;-50
2023/03/30 07:26:43;;;;;;;5.20;4.70;;;20.10;65.10;;;;;;5163086;28;20221;-50
2023/03/30 07:29:14;;;;;;;10.63;8.10;;;19.90;67.10;;;;;;5145835;28;21935;-49
2023/03/30 07:31:45;;;;;;;9.20;8.10;;;20.10;63.70;;;;;;5162705;28;20192;-50
2023/03/30 07:34:16;;;;;;;12.07;7.77;;;20.00;64.00;;;;;;5157880;28;20536;-49
2023/03/30 07:36:47;;;;;;;8.23;4.50;;;21.20;59.20;;;;;;5161582;28;20244;-49
2023/03/30 07:39:18;;;;;;;11.40;5.50;;;21.80;56.00;;;;;;5162721;28;20506;-50
2023/03/30 07:41:49;;;;;;;12.37;5.90;;;22.70;53.20;;;;;;5163148;28;20455;-50
2023/03/30 07:44:20;;;;;;;6.83;6.23;;;23.50;50.00;;;;;;5164170;28;20196;-52
2023/03/30 07:46:51;;;;;;;6.77;6.17;;;24.10;48.60;;;;;;5162313;28;20278;-52
2023/03/30 07:49:22;;;;;;;6.63;4.77;;;24.50;47.40;;;;;;5163383;28;20435;-50
2023/03/30 07:51:53;;;;;;;6.33;4.63;;;24.50;45.50;;;;;;5150014;28;20195;-50
2023/03/30 07:54:24;;;;;;;4.67;4.27;;;23.40;47.30;;;;;;5165956;28;20260;-51
2023/03/30 07:56:55;;;;;;;7.30;5.10;;;22.70;48.50;;;;;;5162305;28;20443;-52
2023/03/30 07:59:26;;;;;;;8.00;6.40;;;22.20;48.70;;;;;;5163367;28;20492;-50
2023/03/30 08:01:56;;;;;;;11.93;6.10;;;22.50;50.20;;;;;;5167493;28;20239;-49
2023/03/30 08:04:27;;;;;;;8.00;5.30;;;23.40;47.70;;;;;;5165693;28;20621;-52
2023/03/30 08:06:57;;;;;;;6.83;6.10;;;23.00;47.90;;;;;;5165742;28;20211;-49
2023/03/30 08:09:29;;;;;;;17.47;5.10;;;22.60;48.30;;;;;;5166487;28;20586;-50
2023/03/30 08:12:00;;;;;;;6.20;3.67;;;23.00;48.30;;;;;;5162959;28;20177;-50
2023/03/30 08:14:31;;;;;;;9.03;4.90;;;22.60;49.80;;;;;;5167958;28;20435;-50
2023/03/30 08:17:02;;;;;;;6.70;4.97;;;22.20;49.30;;;;;;5174523;28;20235;-50
2023/03/30 08:19:33;;;;;;;7.17;5.03;;;22.20;50.20;;;;;;5172547;28;20463;-50
2023/03/30 08:22:04;;;;;;;7.40;5.57;;;22.00;50.90;;;;;;5168239;28;20444;-50
2023/03/30 08:24:34;;;;;;;5.03;4.10;;;21.40;51.40;;;;;;5171940;28;20187;-49
2023/03/30 08:27:05;;;;;;;13.57;8.90;;;21.10;52.40;;;;;;5151282;28;20284;-51
2023/03/30 08:29:36;;;;;;;8.13;7.13;;;20.90;52.80;;;;;;5167455;28;20192;-49
2023/03/30 08:32:07;;;;;;;12.10;7.50;;;20.30;53.70;;;;;;5168224;28;20447;-52
2023/03/30 08:34:38;;;;;;;12.27;7.33;;;19.90;54.40;;;;;;5182886;28;20605;-51
2023/03/30 08:37:08;;;;;;;18.20;11.30;;;19.50;55.60;;;;;;5170255;28;20221;-51
2023/03/30 08:39:39;;;;;;;7.30;6.20;;;19.10;57.40;;;;;;5164729;28;20444;-49
2023/03/30 08:42:35;;;;;;;13.27;6.97;;;18.90;58.20;;;;;;5160470;28;20213;-51
2023/03/30 08:45:10;;;;;;;15.00;9.50;;;18.60;59.00;;;;;;5165746;28;20195;-52
2023/03/30 08:47:43;;;;;;;9.73;5.67;;;18.30;60.30;;;;;;5165189;28;20900;-51
2023/03/30 08:50:21;;;;;;;12.53;7.03;;;18.10;60.90;;;;;;5164605;28;20436;-50
2023/03/30 08:52:52;;;;;;;14.17;6.60;;;17.70;64.00;;;;;;5167074;28;20474;-49
2023/03/30 08:55:31;;;;;;;6.10;4.70;;;17.60;66.50;;;;;;5169942;28;20451;-50
2023/03/30 08:58:14;;;;;;;8.77;4.23;;;17.60;68.30;;;;;;5171076;28;20212;-51
2023/03/30 09:00:44;;;;;;;7.93;4.80;;;17.80;69.60;;;;;;5166152;28;20451;-51
2023/03/30 09:03:30;;;;;;;4.47;3.00;;;17.90;68.00;;;;;;5170700;28;20463;-50
2023/03/30 09:06:12;;;;;;;5.17;3.37;;;17.90;67.10;;;;;;5166313;28;20548;-50
2023/03/30 09:08:43;;;;;;;4.73;4.30;;;18.00;66.90;;;;;;5169477;28;20495;-51
2023/03/30 09:11:23;;;;;;;6.30;3.00;;;18.20;66.60;;;;;;5169252;28;20459;-52
2023/03/30 09:13:55;;;;;;;5.00;2.93;;;18.50;66.60;;;;;;5164681;28;20181;-51
2023/03/30 09:16:32;;;;;;;3.07;2.80;;;18.80;64.80;;;;;;5151067;28;20983;-54
2023/03/30 09:19:05;;;;;;;3.50;2.30;;;19.10;63.80;;;;;;5162474;28;20471;-51
2023/03/30 09:21:37;;;;;;;4.30;2.50;;;19.30;62.20;;;;;;5161632;28;20455;-50
2023/03/30 09:24:17;;;;;;;3.40;3.10;;;19.30;61.20;;;;;;5149020;28;20479;-49
2023/03/30 09:27:12;;;;;;;6.17;2.70;;;19.10;61.20;;;;;;5162893;28;20475;-52
2023/03/30 09:29:47;;;;;;;6.53;3.03;;;19.20;61.70;;;;;;5164165;28;20452;-50
2023/03/30 09:32:35;;;;;;;3.00;2.43;;;19.30;61.40;;;;;;5165886;28;20475;-52
2023/03/30 09:35:33;;;;;;;3.27;3.07;;;19.40;61.30;;;;;;5158380;28;20944;-53
2023/03/30 09:38:04;;;;;;;11.67;4.20;;;19.30;60.20;;;;;;5162188;28;20538;-51
2023/03/30 09:41:05;;;;;;;5.23;2.10;;;19.30;61.00;;;;;;5171610;28;20448;-52
2023/03/30 09:43:44;;;;;;;11.00;3.33;;;19.30;60.90;;;;;;5169516;28;20192;-51
2023/03/30 09:46:16;;;;;;;5.87;2.87;;;19.30;60.60;;;;;;5159594;28;20498;-51
2023/03/30 09:48:48;;;;;;;9.13;3.73;;;19.30;60.70;;;;;;5168531;28;20484;-51
2023/03/30 09:51:23;;;;;;;3.77;2.70;;;19.20;60.80;;;;;;5159735;28;20475;-51
2023/03/30 09:54:03;;;;;;;4.83;2.13;;;19.20;61.00;;;;;;5167626;28;20517;-51
2023/03/30 09:56:43;;;;;;;3.50;2.27;;;19.20;61.00;;;;;;5164770;28;20492;-50
2023/03/30 09:59:32;;;;;;;5.13;2.27;;;19.30;59.80;;;;;;5163257;28;20459;-51
2023/03/30 10:02:24;;;;;;;6.37;1.80;;;19.40;59.80;;;;;;5168121;28;20436;-54
2023/03/30 10:04:59;;;;;;;9.03;2.60;;;19.40;59.80;;;;;;5164750;28;20491;-51
2023/03/30 10:07:39;;;;;;;3.80;2.47;;;19.50;59.70;;;;;;5167018;28;20482;-52
2023/03/30 10:10:14;;;;;;;4.63;2.10;;;19.50;59.30;;;;;;5163563;28;20454;-52
2023/03/30 10:12:48;;;;;;;3.93;2.47;;;19.50;59.40;;;;;;5161397;28;20440;-51
2023/03/30 10:15:22;;;;;;;6.83;2.70;;;19.10;60.10;;;;;;5161434;28;21037;-50
2023/03/30 10:17:55;;;;;;;9.63;2.50;;;19.00;61.20;;;;;;5162159;28;20491;-50
2023/03/30 10:20:36;;;;;;;23.03;3.27;;;18.80;62.00;;;;;;5171006;28;20511;-54
2023/03/30 10:23:16;;;;;;;4.77;2.77;;;18.70;62.60;;;;;;5170320;28;20455;-52
2023/03/30 10:25:49;;;;;;;5.00;2.30;;;18.50;63.60;;;;;;5169660;28;20439;-50
2023/03/30 10:28:25;;;;;;;5.53;3.20;;;18.50;64.70;;;;;;5165751;28;20471;-53
2023/03/30 10:31:06;;;;;;;8.43;3.70;;;18.40;65.30;;;;;;5161558;28;20523;-54
2023/03/30 10:33:40;;;;;;;2.80;2.57;;;18.30;65.80;;;;;;5165263;28;20471;-52
2023/03/30 10:36:13;;;;;;;4.07;3.10;;;18.40;66.60;;;;;;5163683;28;21030;-52
2023/03/30 10:38:45;;;;;;;6.60;3.23;;;18.30;67.00;;;;;;5164591;28;20448;-52
2023/03/30 10:41:21;;;;;;;10.87;4.00;;;18.30;67.30;;;;;;5182285;28;20437;-52
2023/03/30 10:43:52;;;;;;;8.43;3.00;;;18.30;67.30;;;;;;5160533;28;20447;-54
2023/03/30 10:46:24;;;;;;;5.57;2.70;;;18.40;67.80;;;;;;5162395;28;20467;-53
2023/03/30 10:49:13;;;;;;;14.80;3.83;;;18.60;67.00;;;;;;5159623;28;20205;-52
2023/03/30 10:52:07;;;;;;;7.00;3.40;;;18.80;67.10;;;;;;5163903;28;20446;-53
2023/03/30 10:54:55;;;;;;;3.90;3.13;;;19.10;66.10;;;;;;5159297;28;20436;-53
2023/03/30 10:57:55;;;;;;;7.40;3.10;;;19.30;65.80;;;;;;5162421;28;21063;-53
2023/03/30 11:00:58;;;;;;;4.37;2.43;;;19.30;64.40;;;;;;5158395;28;20448;-53
2023/03/30 11:03:31;;;;;;;5.30;2.40;;;19.40;64.90;;;;;;5161445;28;20532;-52
2023/03/30 11:06:23;;;;;;;8.50;2.40;;;19.50;64.00;;;;;;5165822;28;20451;-52
2023/03/30 11:08:58;;;;;;;4.23;2.13;;;19.50;63.50;;;;;;5166995;28;20452;-49
2023/03/30 11:11:44;;;;;;;3.43;2.10;;;19.60;64.00;;;;;;5168820;28;20432;-52
2023/03/30 11:14:22;;;;;;;5.53;2.50;;;19.70;64.00;;;;;;5163262;28;21040;-51
2023/03/30 11:17:07;;;;;;;3.83;2.70;;;19.70;63.60;;;;;;5160920;28;20513;-50
2023/03/30 11:19:57;;;;;;;12.00;2.73;;;19.70;63.60;;;;;;5161932;28;20998;-52
2023/03/30 11:22:47;;;;;;;4.97;2.80;;;19.70;63.90;;;;;;5165339;28;20436;-52
2023/03/30 11:25:25;;;;;;;4.90;3.10;;;19.90;63.60;;;;;;5158939;28;20522;-50
2023/03/30 11:28:24;;;;;;;9.33;2.60;;;19.80;63.00;;;;;;5162787;28;20471;-51
2023/03/30 11:31:01;;;;;;;6.83;3.00;;;19.90;62.10;;;;;;5161185;28;20944;-52
2023/03/30 11:33:43;;;;;;;7.47;3.03;;;19.80;62.30;;;;;;5160145;28;20482;-51
2023/03/30 11:36:26;;;;;;;12.30;4.27;;;19.70;62.80;;;;;;5159180;28;20448;-51
2023/03/30 11:39:08;;;;;;;8.27;3.30;;;19.40;63.70;;;;;;5159057;28;20469;-51
2023/03/30 11:41:43;;;;;;;3.70;3.37;;;19.40;64.40;;;;;;5166246;28;20432;-51
2023/03/30 11:44:14;;;;;;;10.03;2.73;;;19.30;64.90;;;;;;5162682;28;20490;-52
2023/03/30 11:47:05;;;;;;;5.40;2.40;;;19.40;65.40;;;;;;5163323;28;20805;-49
2023/03/30 11:49:56;;;;;;;2.17;2.07;;;19.50;65.10;;;;;;5154634;28;20257;-54
2023/03/30 11:52:44;;;;;;;5.30;2.90;;;19.80;65.10;;;;;;5160251;28;20844;-51
2023/03/30 11:55:23;;;;;;;5.10;3.13;;;19.60;65.20;;;;;;5154984;28;20431;-51
2023/03/30 11:58:23;;;;;;;11.30;4.40;;;19.60;65.80;;;;;;5159649;28;20499;-51
2023/03/30 12:01:25;;;;;;;4.67;2.30;;;19.50;66.60;;;;;;5161008;28;20448;-50
2023/03/30 12:04:19;;;;;;;3.73;1.83;;;19.40;67.10;;;;;;5163956;28;20486;-50
2023/03/30 12:06:58;;;;;;;5.60;2.70;;;19.30;67.80;;;;;;5164314;28;20494;-51
2023/03/30 12:09:39;;;;;;;6.00;2.70;;;19.30;68.80;;;;;;5166769;28;20452;-51
2023/03/30 12:12:15;;;;;;;2.57;2.37;;;19.50;68.60;;;;;;5156226;28;20867;-53
2023/03/30 12:15:25;;;;;;;2.47;2.37;;;19.60;68.80;;;;;;5160089;28;20468;-55
2023/03/30 12:18:05;;;;;;;6.93;2.73;;;19.70;67.50;;;;;;5174779;28;20499;-50
2023/03/30 12:20:50;;;;;;;3.37;3.13;;;19.80;67.40;;;;;;5161004;28;20479;-50
2023/03/30 12:23:25;;;;;;;3.90;2.60;;;19.70;67.70;;;;;;5164279;28;20940;-50
2023/03/30 12:26:08;;;;;;;7.60;2.37;;;19.60;68.30;;;;;;5164263;28;20463;-50
2023/03/30 12:29:12;;;;;;;5.27;2.53;;;19.60;68.60;;;;;;5161301;28;20475;-51
2023/03/30 12:31:57;;;;;;;4.13;2.33;;;19.50;69.10;;;;;;5155866;28;20950;-50
2023/03/30 12:34:35;;;;;;;9.60;3.37;;;19.50;69.70;;;;;;5162304;28;20448;-51
2023/03/30 12:37:27;;;;;;;4.03;3.57;;;19.40;69.40;;;;;;5163011;28;20444;-51
2023/03/30 12:40:07;;;;;;;10.13;3.93;;;19.50;69.10;;;;;;5161550;28;20431;-51
2023/03/30 12:42:45;;;;;;;5.30;2.40;;;19.30;70.00;;;;;;5147267;28;20452;-51
2023/03/30 12:45:24;;;;;;;11.53;6.67;;;19.10;70.30;;;;;;5162118;28;20578;-49
2023/03/30 12:48:26;;;;;;;4.90;3.50;;;19.00;70.20;;;;;;5157899;28;20773;-52
2023/03/30 12:51:03;;;;;;;4.53;3.27;;;19.10;71.10;;;;;;5157146;28;21141;-51
2023/03/30 12:53:46;;;;;;;4.37;3.67;;;19.60;70.30;;;;;;5160623;28;20440;-52
2023/03/30 12:56:19;;;;;;;7.47;3.40;;;20.00;66.60;;;;;;5162035;28;20443;-53
2023/03/30 12:58:56;;;;;;;6.10;4.87;;;20.30;64.40;;;;;;5166961;28;21009;-51
2023/03/30 13:01:43;;;;;;;10.60;4.13;;;20.50;63.10;;;;;;5161102;28;20531;-53
2023/03/30 13:04:20;;;;;;;3.80;2.60;;;20.40;62.90;;;;;;5167089;28;20518;-51
2023/03/30 13:06:58;;;;;;;5.40;2.67;;;20.30;63.10;;;;;;5169783;28;20968;-50
2023/03/30 13:09:32;;;;;;;6.07;2.40;;;20.20;63.70;;;;;;5162802;28;20444;-51
2023/03/30 13:12:03;;;;;;;10.03;2.83;;;20.30;63.50;;;;;;5167180;28;20504;-50
2023/03/30 13:14:37;;;;;;;2.27;2.13;;;20.30;63.30;;;;;;5167652;28;20796;-49
2023/03/30 13:17:14;;;;;;;4.67;2.73;;;20.30;63.50;;;;;;5165740;28;20271;-50
2023/03/30 13:20:04;;;;;;;5.80;3.33;;;20.60;61.90;;;;;;5167968;28;20467;-51
2023/03/30 13:22:35;;;;;;;11.10;3.57;;;20.60;61.20;;;;;;5167977;28;20816;-51
2023/03/30 13:25:25;;;;;;;5.30;3.00;;;20.70;61.20;;;;;;5148632;28;20452;-50
2023/03/30 13:27:58;;;;;;;3.10;2.63;;;20.50;61.10;;;;;;5165203;28;20476;-50
2023/03/30 13:30:30;;;;;;;8.63;3.30;;;20.30;61.30;;;;;;5168572;28;20538;-50
2023/03/30 13:33:14;;;;;;;4.67;2.20;;;20.10;61.20;;;;;;5165934;28;20487;-54
2023/03/30 13:35:53;;;;;;;4.70;2.60;;;19.90;61.70;;;;;;5163788;28;20432;-53